Chesterfield, MO

12:45 PM CST on February 11, 2016 (GMT -0600)
Spirit Of Saint Louis | | Change Station
CLOSE
Current Station
Airport
Location: Spirit of St Louis,
Elevation: 463 ft
Nearby Weather Stations

Elev 463 ft 38.66 °N, 90.66 °W | Updated 51 minutes ago

Scattered Clouds
Scattered Clouds
27 °F
Feels Like 22 °F
N
5
Wind Variable Wind from NE

Today
High -- | Low -- °F
--% Chance of Precip.
Yesterday
High -- | Low -- °F
Precip. -- in
Pressure 30.37 in
Visibility 10.0 miles
Clouds Scattered Clouds 4200 ft
Windchill 22 °F
Dew Point 17 °F
Humidity 66%
Rainfall 0.00 in
Snow Depth Not available.
6:58 AM 5:35 PM
Waxing Crescent, 13% visible
METAR KSUS 111754Z 04004KT 10SM SCT042 M03/M08 A3034 RMK AO2 SLP283 T10281083 11028 21056 50004
Pressure 30.37 in
Visibility 10.0 miles
Clouds Scattered Clouds 4200 ft
Windchill 22 °F
Dew Point 17 °F
Humidity 66%
Rainfall 0.00 in
Snow Depth Not available.
6:58 AM 5:35 PM
Waxing Crescent, 13% visible
METAR KSUS 111754Z 04004KT 10SM SCT042 M03/M08 A3034 RMK AO2 SLP283 T10281083 11028 21056 50004

10-Day Weather Forecast

Almanac

Astronomy

Feb. 11, 2016 Rise Set
Actual Time
Civil Twilight
Nautical Twilight
Astronomical Twilight
Moon
Length of Visible Light
Length of Day
Tomorrow will be .
, % of the Moon is Illuminated

Today's Extremes

State Highs State Lows

Community

WunderPhotos

Upload Photos

1,892,125 photos uploaded!

WunderBlog® & News

Nearby

Air Quality

  Air Quality AQ Index Pollutant
Not available.

Snow Depth

Station Depth Elevation

Earthquake Activity

City Distance Mag. Time & Date
Minimum magnitude displayed is 2.5.

Coastal Water Temperatures

Place Temperature

Stations

Nearby Weather Stations

Station Location Temp. Windchill Dew Point Humidity Wind Precip. Elev Updated Type
                   

Watches & Warnings

There are currently no watches in effect.